Time;durP1;ratioP1;P1;durP2;ratioP2;P2;SDS_P1;SDS_P2;PMS_P1;PMS_P2;Temp;Humidity;BMP_temperature;BMP_pressure;BME280_temperature;BME280_humidity;BME280_pressure;Samples;Min_cycle;Max_cycle;Signal;HPM_P1;HPM_P2
2024/01/13 00:00:23;;;;;;;16.13;7.82;;;21.80;44.70;;;;;;5092274;28;20036;-77
2024/01/13 00:02:49;;;;;;;12.10;7.50;;;21.80;43.60;;;;;;5092464;28;20093;-77
2024/01/13 00:05:16;;;;;;;13.02;7.93;;;21.80;43.50;;;;;;5092610;28;20036;-77
2024/01/13 00:07:42;;;;;;;18.83;7.82;;;21.70;44.00;;;;;;5092470;28;20487;-77
2024/01/13 00:10:08;;;;;;;10.50;6.55;;;21.50;43.00;;;;;;5101743;28;20035;-76
2024/01/13 00:12:34;;;;;;;12.25;7.40;;;21.50;43.30;;;;;;5112655;28;20047;-77
2024/01/13 00:15:00;;;;;;;13.15;7.95;;;21.40;43.30;;;;;;5112545;27;20038;-77
2024/01/13 00:17:26;;;;;;;16.95;8.00;;;21.40;43.50;;;;;;5112365;28;20047;-77
2024/01/13 00:19:52;;;;;;;14.68;7.95;;;21.40;43.50;;;;;;5112595;28;20053;-76
2024/01/13 00:22:19;;;;;;;17.35;9.38;;;21.40;43.50;;;;;;5075794;28;20046;-78
2024/01/13 00:24:45;;;;;;;14.82;8.73;;;21.30;43.40;;;;;;5112220;28;20383;-77
2024/01/13 00:27:11;;;;;;;13.82;8.50;;;21.30;43.50;;;;;;5112300;28;20040;-77
2024/01/13 00:29:37;;;;;;;11.82;6.90;;;21.30;43.40;;;;;;5112805;28;20091;-76
2024/01/13 00:32:04;;;;;;;13.13;8.40;;;21.40;43.50;;;;;;5112519;28;20061;-77
2024/01/13 00:34:30;;;;;;;16.60;8.43;;;21.30;43.20;;;;;;5112392;28;20031;-75
2024/01/13 00:36:56;;;;;;;14.05;8.00;;;21.40;43.60;;;;;;5112400;28;20044;-78
2024/01/13 00:39:22;;;;;;;12.27;7.15;;;21.40;43.10;;;;;;5111886;28;20043;-77
2024/01/13 00:41:48;;;;;;;11.68;7.22;;;21.50;42.90;;;;;;5112155;28;20027;-78
2024/01/13 00:44:14;;;;;;;17.25;7.88;;;21.70;43.50;;;;;;5092686;28;20546;-77
2024/01/13 00:46:41;;;;;;;10.15;6.07;;;21.40;43.00;;;;;;5112243;28;20031;-76
2024/01/13 00:49:07;;;;;;;12.50;7.38;;;21.70;43.20;;;;;;5112153;27;20047;-77
2024/01/13 00:51:33;;;;;;;14.80;7.00;;;21.50;42.30;;;;;;5112207;28;20027;-77
2024/01/13 00:54:06;;;;;;;14.35;7.57;;;21.50;42.10;;;;;;5111879;28;20040;-77
2024/01/13 00:56:33;;;;;;;12.40;6.30;;;21.50;42.30;;;;;;5111902;28;20107;-77
2024/01/13 00:58:59;;;;;;;10.75;7.00;;;21.50;42.70;;;;;;5111949;28;20291;-78
2024/01/13 01:01:26;;;;;;;11.02;6.95;;;21.60;42.20;;;;;;5102757;28;20039;-78
2024/01/13 01:03:52;;;;;;;13.23;6.60;;;21.60;42.10;;;;;;5091482;28;20032;-77
2024/01/13 01:06:18;;;;;;;10.05;5.85;;;21.60;41.90;;;;;;5089960;28;20518;-76
2024/01/13 01:08:44;;;;;;;10.90;6.50;;;21.70;41.90;;;;;;5091473;28;20070;-77
2024/01/13 01:11:11;;;;;;;11.07;6.50;;;21.50;41.90;;;;;;5090102;28;20035;-77
2024/01/13 01:13:37;;;;;;;10.15;6.20;;;21.70;41.90;;;;;;5090100;28;20120;-75
2024/01/13 01:16:04;;;;;;;10.45;5.78;;;21.80;41.70;;;;;;5091476;28;20042;-78
2024/01/13 01:18:30;;;;;;;9.57;5.82;;;21.70;41.50;;;;;;5091192;28;20553;-77
2024/01/13 01:20:56;;;;;;;8.63;5.38;;;21.80;41.50;;;;;;5107076;28;20467;-77
2024/01/13 01:23:24;;;;;;;9.90;6.20;;;21.80;41.50;;;;;;5111624;28;20044;-77
2024/01/13 01:25:50;;;;;;;7.78;4.53;;;21.70;41.60;;;;;;5111545;28;20035;-76
2024/01/13 01:28:16;;;;;;;7.65;5.00;;;21.80;41.60;;;;;;5111791;28;20036;-77
2024/01/13 01:30:42;;;;;;;10.15;5.93;;;21.70;41.30;;;;;;5111438;28;20035;-77
2024/01/13 01:33:08;;;;;;;11.18;5.60;;;21.90;40.40;;;;;;5111370;28;20032;-77
2024/01/13 01:35:34;;;;;;;6.90;4.95;;;21.90;40.70;;;;;;5097107;28;20524;-76
2024/01/13 01:38:00;;;;;;;10.93;5.25;;;21.80;40.50;;;;;;5114302;28;20043;-75
2024/01/13 01:40:30;;;;;;;8.25;5.82;;;21.90;41.40;;;;;;5115778;27;20501;-78
2024/01/13 01:42:56;;;;;;;9.48;5.15;;;21.90;41.90;;;;;;5114321;28;20032;-77
2024/01/13 01:45:23;;;;;;;5.93;4.75;;;21.80;41.80;;;;;;5115715;28;20043;-77
2024/01/13 01:47:52;;;;;;;7.25;4.60;;;22.10;39.70;;;;;;5115622;28;20058;-77
2024/01/13 01:50:18;;;;;;;7.78;5.10;;;21.70;40.70;;;;;;5115544;27;20047;-77
2024/01/13 01:52:44;;;;;;;8.65;4.60;;;22.30;40.00;;;;;;5115380;28;20431;-77
2024/01/13 01:55:11;;;;;;;11.30;5.55;;;21.90;40.40;;;;;;5115499;28;20050;-78
2024/01/13 01:57:40;;;;;;;7.63;4.95;;;21.80;40.10;;;;;;5115497;28;20074;-77
2024/01/13 02:00:11;;;;;;;7.93;4.45;;;21.80;41.30;;;;;;5115429;28;20036;-77
2024/01/13 02:02:41;;;;;;;6.10;4.53;;;21.90;40.40;;;;;;5115282;28;20034;-78
2024/01/13 02:05:08;;;;;;;9.65;4.82;;;22.30;40.20;;;;;;5095682;28;20108;-77
2024/01/13 02:07:34;;;;;;;9.07;4.80;;;22.50;40.10;;;;;;5095687;28;20054;-77
2024/01/13 02:10:01;;;;;;;6.20;4.30;;;21.40;40.50;;;;;;5114424;28;20043;-77
2024/01/13 02:12:28;;;;;;;7.10;4.15;;;22.00;40.80;;;;;;5115151;28;20024;-77
2024/01/13 02:14:54;;;;;;;6.30;4.15;;;21.90;39.40;;;;;;5114796;28;20063;-76
2024/01/13 02:17:24;;;;;;;8.38;4.28;;;21.80;40.40;;;;;;5115022;28;20050;-77
2024/01/13 02:19:51;;;;;;;5.75;3.75;;;21.90;40.40;;;;;;5114665;28;20040;-78
2024/01/13 02:22:17;;;;;;;8.20;3.55;;;22.00;40.60;;;;;;5114893;28;20470;-78
2024/01/13 02:24:43;;;;;;;10.18;4.00;;;23.00;39.60;;;;;;5114583;28;20378;-78
2024/01/13 02:27:09;;;;;;;5.53;2.80;;;22.00;40.70;;;;;;5096167;28;20487;-78
2024/01/13 02:29:35;;;;;;;7.65;4.05;;;22.00;40.30;;;;;;5114556;28;20058;-77
2024/01/13 02:32:01;;;;;;;8.63;3.70;;;21.90;38.90;;;;;;5114512;28;20031;-77
2024/01/13 02:34:27;;;;;;;6.88;3.33;;;22.00;39.10;;;;;;5114373;27;20046;-78
2024/01/13 02:36:53;;;;;;;7.75;4.10;;;21.90;40.40;;;;;;5114645;28;20043;-78
2024/01/13 02:39:19;;;;;;;5.32;3.55;;;21.90;40.60;;;;;;5114830;28;20078;-78
2024/01/13 02:41:45;;;;;;;5.85;3.60;;;21.90;40.20;;;;;;5114661;28;20126;-77
2024/01/13 02:44:11;;;;;;;6.63;3.78;;;22.80;39.80;;;;;;5114559;28;20050;-77
2024/01/13 02:46:37;;;;;;;4.68;3.28;;;22.10;38.30;;;;;;5113207;28;20023;-78
2024/01/13 02:49:05;;;;;;;6.72;3.95;;;21.90;40.40;;;;;;5114725;28;20070;-78
2024/01/13 02:51:31;;;;;;;6.00;3.78;;;21.80;40.40;;;;;;5114482;28;20023;-77
2024/01/13 02:53:57;;;;;;;5.50;3.88;;;21.60;39.00;;;;;;5114200;28;20628;-78
2024/01/13 02:56:23;;;;;;;6.82;3.80;;;22.10;39.80;;;;;;5114226;28;20028;-77
2024/01/13 02:58:49;;;;;;;6.88;4.10;;;21.90;39.50;;;;;;5114074;28;20067;-76
2024/01/13 03:01:17;;;;;;;5.07;4.13;;;21.20;40.00;;;;;;5114066;28;20028;-75
2024/01/13 03:03:43;;;;;;;5.75;4.20;;;23.70;40.70;;;;;;5113905;28;20084;-77
2024/01/13 03:06:10;;;;;;;6.72;3.85;;;22.60;39.20;;;;;;5114237;28;20035;-77
2024/01/13 03:08:36;;;;;;;6.65;3.92;;;22.10;38.80;;;;;;5110614;28;20027;-77
2024/01/13 03:11:02;;;;;;;5.43;3.65;;;22.20;39.40;;;;;;5114119;28;20046;-77
2024/01/13 03:13:28;;;;;;;6.47;3.65;;;21.60;39.40;;;;;;5113953;28;20082;-77
2024/01/13 03:15:54;;;;;;;5.40;3.83;;;21.90;39.50;;;;;;5113927;27;20031;-78
2024/01/13 03:18:20;;;;;;;6.45;3.38;;;21.80;39.00;;;;;;5098808;28;20561;-77
2024/01/13 03:20:46;;;;;;;5.63;3.08;;;21.80;39.00;;;;;;5093600;28;20044;-77
2024/01/13 03:23:12;;;;;;;6.03;3.47;;;22.10;39.80;;;;;;5074444;28;20136;-77
2024/01/13 03:25:38;;;;;;;6.97;3.97;;;21.80;39.10;;;;;;5093162;28;20040;-78
2024/01/13 03:28:05;;;;;;;5.90;3.63;;;21.80;39.30;;;;;;5091971;28;20399;-76
2024/01/13 03:30:31;;;;;;;10.75;4.60;;;21.60;39.00;;;;;;5073898;28;20127;-77
2024/01/13 03:32:57;;;;;;;4.80;3.40;;;21.60;39.10;;;;;;5090596;28;20090;-78
2024/01/13 03:35:23;;;;;;;4.57;3.67;;;21.60;39.30;;;;;;5090598;28;20051;-78
2024/01/13 03:37:49;;;;;;;4.85;3.33;;;21.60;40.50;;;;;;5090514;28;20056;-78
2024/01/13 03:40:15;;;;;;;5.57;3.30;;;21.60;39.60;;;;;;5090631;28;20078;-77
2024/01/13 03:42:41;;;;;;;5.90;3.88;;;21.60;39.00;;;;;;5090596;28;20131;-77
2024/01/13 03:45:07;;;;;;;10.50;3.75;;;21.50;39.00;;;;;;5090244;28;20047;-78
2024/01/13 03:47:34;;;;;;;6.05;3.90;;;21.50;39.00;;;;;;5090342;28;20475;-76
2024/01/13 03:50:00;;;;;;;7.63;3.95;;;21.70;39.00;;;;;;5090328;28;20418;-77
2024/01/13 03:52:26;;;;;;;5.28;3.38;;;21.20;38.90;;;;;;5090236;28;20041;-77
2024/01/13 03:54:52;;;;;;;5.18;3.10;;;21.80;39.10;;;;;;5090254;28;20118;-78
2024/01/13 03:57:18;;;;;;;4.90;3.42;;;21.60;39.00;;;;;;5073236;28;20074;-77
2024/01/13 03:59:45;;;;;;;8.85;3.70;;;21.60;39.00;;;;;;5090155;28;20040;-73
2024/01/13 04:02:11;;;;;;;4.35;3.40;;;21.60;38.90;;;;;;5056639;28;20047;-77
2024/01/13 04:04:38;;;;;;;10.45;3.88;;;21.70;39.10;;;;;;5089904;28;20109;-78
2024/01/13 04:07:04;;;;;;;6.82;3.85;;;21.70;39.00;;;;;;5073387;28;20043;-76
2024/01/13 04:09:30;;;;;;;4.20;3.28;;;21.80;38.90;;;;;;5090332;28;20055;-77
2024/01/13 04:11:56;;;;;;;5.68;3.53;;;21.70;38.60;;;;;;5090982;28;20036;-78
2024/01/13 04:14:22;;;;;;;5.10;3.00;;;21.70;39.10;;;;;;5091841;28;20024;-77
2024/01/13 04:16:49;;;;;;;4.47;3.08;;;21.60;38.70;;;;;;5101115;28;20091;-76
2024/01/13 04:19:15;;;;;;;5.70;3.40;;;21.70;38.50;;;;;;5112491;28;20070;-77
2024/01/13 04:21:42;;;;;;;5.38;3.47;;;21.80;38.80;;;;;;5112464;27;20044;-77
2024/01/13 04:24:08;;;;;;;6.72;3.05;;;21.60;38.40;;;;;;5112569;28;20073;-77
2024/01/13 04:26:35;;;;;;;7.50;3.80;;;21.70;38.30;;;;;;5111105;28;20024;-75
2024/01/13 04:29:01;;;;;;;7.15;3.58;;;21.60;38.30;;;;;;5112360;28;20516;-77
2024/01/13 04:31:27;;;;;;;7.45;3.50;;;21.50;38.60;;;;;;5112578;28;20024;-77
2024/01/13 04:33:53;;;;;;;4.68;3.00;;;21.30;38.70;;;;;;5112443;28;20050;-77
2024/01/13 04:36:19;;;;;;;5.55;2.95;;;21.70;38.90;;;;;;5112201;28;20528;-76
2024/01/13 04:38:46;;;;;;;4.88;3.22;;;21.50;38.40;;;;;;5112373;28;20372;-77
2024/01/13 04:41:12;;;;;;;3.88;3.00;;;21.90;38.40;;;;;;5111953;28;20411;-76
2024/01/13 04:43:38;;;;;;;6.85;3.50;;;21.70;38.20;;;;;;5112194;28;20059;-77
2024/01/13 04:46:06;;;;;;;5.43;3.38;;;21.70;38.00;;;;;;5110820;28;20027;-77
2024/01/13 04:48:32;;;;;;;7.55;3.70;;;21.60;38.30;;;;;;5112179;28;20024;-78
2024/01/13 04:50:58;;;;;;;3.75;2.80;;;21.50;38.50;;;;;;5112254;28;20429;-78
2024/01/13 04:53:24;;;;;;;5.40;3.83;;;21.60;38.50;;;;;;5112031;28;20115;-75
2024/01/13 04:55:51;;;;;;;7.15;3.33;;;21.50;38.50;;;;;;5092588;28;20388;-75
2024/01/13 04:58:17;;;;;;;4.90;3.28;;;21.50;38.50;;;;;;5111716;28;20514;-76
2024/01/13 05:00:43;;;;;;;4.65;3.22;;;21.60;38.50;;;;;;5111701;28;20779;-69
2024/01/13 05:03:09;;;;;;;4.03;2.85;;;21.60;38.50;;;;;;5110510;28;20387;-69
2024/01/13 05:05:35;;;;;;;5.70;2.92;;;21.50;38.80;;;;;;5111852;28;20039;-69
2024/01/13 05:08:02;;;;;;;2.92;2.60;;;21.60;39.10;;;;;;5111680;28;20433;-75
2024/01/13 05:10:28;;;;;;;2.53;2.03;;;21.60;39.50;;;;;;5093524;28;20125;-75
2024/01/13 05:12:54;;;;;;;3.35;2.10;;;21.70;39.50;;;;;;5091294;28;20036;-74
2024/01/13 05:15:20;;;;;;;4.13;2.20;;;21.90;40.50;;;;;;5091173;28;20028;-80
2024/01/13 05:17:46;;;;;;;5.30;2.50;;;22.30;41.90;;;;;;5093115;28;20136;-76
2024/01/13 05:20:13;;;;;;;7.28;2.55;;;23.10;46.40;;;;;;5092027;28;20078;-74
2024/01/13 05:22:39;;;;;;;4.97;2.80;;;23.00;41.10;;;;;;5068409;28;20108;-73
2024/01/13 05:25:05;;;;;;;5.07;2.38;;;23.00;39.80;;;;;;5068216;28;20396;-77
2024/01/13 05:27:31;;;;;;;6.22;3.75;;;22.80;36.00;;;;;;5068575;28;20054;-76
2024/01/13 05:29:57;;;;;;;7.85;4.53;;;22.60;35.10;;;;;;5068673;28;20033;-75
2024/01/13 05:32:24;;;;;;;5.88;4.30;;;22.30;33.70;;;;;;5068318;28;20138;-76
2024/01/13 05:34:50;;;;;;;5.63;3.80;;;22.20;33.40;;;;;;5068538;28;20123;-76
2024/01/13 05:37:16;;;;;;;5.22;3.65;;;22.20;33.70;;;;;;5068409;28;20043;-76
2024/01/13 05:39:42;;;;;;;5.50;3.25;;;22.10;34.30;;;;;;5051601;28;20052;-77
2024/01/13 05:42:08;;;;;;;4.60;3.00;;;22.00;35.00;;;;;;5068293;28;20041;-78
2024/01/13 05:44:34;;;;;;;6.22;3.90;;;21.90;35.70;;;;;;5034630;28;20227;-77
2024/01/13 05:47:00;;;;;;;7.75;4.03;;;21.90;36.00;;;;;;5068278;28;20036;-78
2024/01/13 05:49:26;;;;;;;8.02;3.92;;;21.90;36.30;;;;;;5068429;28;20626;-77
2024/01/13 05:51:53;;;;;;;5.45;4.05;;;21.90;36.50;;;;;;5068412;28;20059;-75
2024/01/13 05:54:19;;;;;;;7.38;4.00;;;21.90;36.80;;;;;;5085527;28;20047;-74
2024/01/13 05:56:45;;;;;;;6.72;4.15;;;21.80;37.00;;;;;;5071914;28;20043;-76
2024/01/13 05:59:11;;;;;;;9.07;4.28;;;21.70;37.30;;;;;;5091062;28;20044;-75
2024/01/13 06:01:37;;;;;;;6.40;4.07;;;21.50;37.60;;;;;;5090762;28;20069;-75
2024/01/13 06:04:03;;;;;;;3.30;2.80;;;21.70;37.80;;;;;;5090674;28;20028;-76
2024/01/13 06:06:29;;;;;;;7.63;3.25;;;21.80;36.00;;;;;;5089578;28;20036;-77
2024/01/13 06:08:55;;;;;;;3.08;2.42;;;21.80;33.90;;;;;;5090869;28;20032;-75
2024/01/13 06:11:21;;;;;;;4.03;3.00;;;21.80;34.90;;;;;;5091147;28;20025;-75
2024/01/13 06:13:48;;;;;;;3.75;2.47;;;21.70;35.50;;;;;;5090970;28;20112;-75
2024/01/13 06:16:14;;;;;;;5.85;4.38;;;21.90;34.80;;;;;;5093066;28;20051;-77
2024/01/13 06:18:40;;;;;;;3.30;2.47;;;21.80;34.80;;;;;;5110895;28;20355;-82
2024/01/13 06:21:06;;;;;;;3.78;2.92;;;21.80;35.00;;;;;;5112472;28;20020;-72
2024/01/13 06:23:32;;;;;;;3.53;3.13;;;22.00;34.10;;;;;;5114824;27;20041;-77
2024/01/13 06:25:59;;;;;;;6.53;4.80;;;21.90;34.20;;;;;;5114605;28;20019;-75
2024/01/13 06:28:25;;;;;;;5.40;4.80;;;21.90;32.90;;;;;;5114759;28;20046;-77
2024/01/13 06:30:51;;;;;;;6.38;4.28;;;21.90;32.80;;;;;;5115060;28;20427;-80
2024/01/13 06:33:17;;;;;;;4.22;3.40;;;22.00;34.20;;;;;;5113514;28;20437;-77
2024/01/13 06:35:43;;;;;;;3.47;2.83;;;22.00;33.20;;;;;;5114647;28;20062;-75
2024/01/13 06:38:09;;;;;;;4.50;2.95;;;21.90;32.30;;;;;;5114876;28;20483;-78
2024/01/13 06:40:35;;;;;;;4.85;3.00;;;22.00;32.00;;;;;;5114776;28;20042;-77
2024/01/13 06:43:01;;;;;;;4.25;3.22;;;22.00;31.60;;;;;;5114506;28;20408;-79
2024/01/13 06:45:27;;;;;;;3.55;3.25;;;21.90;31.90;;;;;;5113062;28;20470;-74
2024/01/13 06:47:53;;;;;;;3.92;3.05;;;22.00;31.40;;;;;;5114407;28;20043;-77
2024/01/13 06:50:19;;;;;;;4.47;3.25;;;22.00;31.40;;;;;;5114538;28;20172;-79
2024/01/13 06:52:45;;;;;;;5.13;3.25;;;21.90;31.10;;;;;;5114218;28;20107;-75
2024/01/13 06:55:12;;;;;;;4.95;3.78;;;21.90;30.10;;;;;;5114350;28;20023;-75
2024/01/13 06:57:38;;;;;;;6.00;3.58;;;22.00;30.40;;;;;;5114227;28;20046;-73
2024/01/13 07:00:07;;;;;;;8.07;5.00;;;21.90;32.40;;;;;;5113175;28;20024;-76
2024/01/13 07:02:33;;;;;;;8.60;5.18;;;22.00;39.60;;;;;;5096017;28;20465;-77
2024/01/13 07:05:03;;;;;;;12.85;5.43;;;22.10;40.10;;;;;;5114038;28;20039;-78
2024/01/13 07:07:31;;;;;;;9.50;5.68;;;22.20;40.10;;;;;;5113989;28;20024;-74
2024/01/13 07:09:57;;;;;;;9.57;5.60;;;22.20;40.20;;;;;;5114010;28;20399;-75
2024/01/13 07:12:23;;;;;;;10.98;6.30;;;22.20;40.40;;;;;;5114148;28;20031;-74
2024/01/13 07:14:49;;;;;;;10.73;6.57;;;22.00;40.40;;;;;;5105535;28;20024;-76
2024/01/13 07:17:15;;;;;;;11.27;6.85;;;22.10;40.50;;;;;;5093708;28;20143;-77
2024/01/13 07:19:42;;;;;;;14.85;7.63;;;22.10;40.70;;;;;;5093783;28;20097;-75
2024/01/13 07:22:08;;;;;;;11.07;7.00;;;22.00;40.70;;;;;;5093352;28;20034;-75
2024/01/13 07:24:34;;;;;;;10.57;6.68;;;22.10;41.00;;;;;;5093166;28;20055;-77
2024/01/13 07:27:01;;;;;;;10.60;6.60;;;22.10;41.20;;;;;;5096155;28;20036;-70
2024/01/13 07:29:27;;;;;;;17.65;7.95;;;22.00;41.40;;;;;;5104126;28;20023;-70
2024/01/13 07:31:53;;;;;;;14.55;6.90;;;22.10;41.70;;;;;;5101313;28;20028;-70
2024/01/13 07:34:19;;;;;;;12.23;7.35;;;22.00;41.80;;;;;;5101922;28;20039;-69
2024/01/13 07:36:45;;;;;;;10.38;6.80;;;22.00;43.20;;;;;;5076124;28;20043;-70
2024/01/13 07:39:12;;;;;;;12.25;7.57;;;22.10;42.90;;;;;;5102826;28;20071;-72
2024/01/13 07:41:38;;;;;;;11.48;7.43;;;22.10;42.80;;;;;;5103551;28;20058;-72
2024/01/13 07:44:09;;;;;;;10.85;7.43;;;22.00;42.60;;;;;;5104255;28;20023;-72
2024/01/13 07:46:41;;;;;;;13.90;8.07;;;21.90;42.70;;;;;;5102846;28;20472;-71
2024/01/13 07:49:08;;;;;;;11.48;7.93;;;22.00;42.90;;;;;;5103741;28;20027;-73
2024/01/13 07:51:35;;;;;;;7.32;3.30;;;21.70;43.30;;;;;;5102933;28;20690;-75
2024/01/13 07:54:01;;;;;;;5.68;3.35;;;21.90;43.10;;;;;;5101626;28;20049;-73
2024/01/13 07:56:28;;;;;;;5.25;3.05;;;22.00;43.30;;;;;;5102088;28;20054;-76
2024/01/13 07:58:54;;;;;;;5.57;2.22;;;22.00;43.30;;;;;;5083317;28;20392;-75
2024/01/13 08:01:20;;;;;;;3.60;2.53;;;22.00;43.20;;;;;;5104068;28;20123;-72
2024/01/13 08:03:46;;;;;;;4.82;2.88;;;21.60;43.70;;;;;;5104415;28;20024;-74
2024/01/13 08:06:13;;;;;;;8.10;2.97;;;22.10;43.20;;;;;;5103140;28;20104;-71
2024/01/13 08:08:39;;;;;;;5.43;3.20;;;22.00;42.50;;;;;;5103256;28;20028;-74
2024/01/13 08:11:05;;;;;;;5.78;3.17;;;22.10;42.30;;;;;;5102331;28;20070;-72
2024/01/13 08:13:31;;;;;;;6.38;3.80;;;22.10;42.10;;;;;;5107151;28;20091;-72
2024/01/13 08:15:58;;;;;;;3.58;2.83;;;22.10;41.60;;;;;;5092194;28;20067;-74
2024/01/13 08:18:24;;;;;;;3.88;3.10;;;22.10;41.40;;;;;;5104567;28;20043;-73
2024/01/13 08:20:51;;;;;;;4.53;3.20;;;21.90;41.30;;;;;;5112718;28;20032;-74
2024/01/13 08:23:18;;;;;;;5.22;3.08;;;22.00;40.60;;;;;;5112632;28;20062;-74
2024/01/13 08:25:44;;;;;;;5.82;3.50;;;22.00;40.30;;;;;;5112502;28;20036;-75
2024/01/13 08:28:11;;;;;;;5.07;3.20;;;22.00;40.20;;;;;;5107963;28;20060;-73
2024/01/13 08:30:40;;;;;;;6.95;4.07;;;22.10;40.10;;;;;;5103459;28;20121;-73
2024/01/13 08:33:06;;;;;;;17.25;9.80;;;22.00;39.60;;;;;;5092878;28;20505;-73
2024/01/13 08:35:32;;;;;;;17.95;9.82;;;22.10;39.60;;;;;;5100218;28;20059;-73
2024/01/13 08:37:58;;;;;;;18.48;9.98;;;22.00;39.80;;;;;;5102412;28;20043;-74
2024/01/13 08:40:24;;;;;;;15.95;10.10;;;21.90;40.40;;;;;;5091773;28;20787;-77
2024/01/13 08:42:50;;;;;;;15.82;10.32;;;22.00;41.00;;;;;;5099398;28;20034;-74
2024/01/13 08:45:19;;;;;;;17.05;9.75;;;21.90;41.50;;;;;;5093639;28;20530;-74
2024/01/13 08:47:45;;;;;;;15.07;8.93;;;21.90;41.80;;;;;;5091830;28;20115;-72
2024/01/13 08:50:12;;;;;;;20.98;12.93;;;21.90;42.90;;;;;;5096980;28;20077;-76
2024/01/13 08:52:38;;;;;;;21.58;12.95;;;21.90;43.40;;;;;;5102934;28;20089;-73
2024/01/13 08:55:05;;;;;;;17.13;11.38;;;21.90;43.50;;;;;;5099718;28;20052;-72
2024/01/13 08:57:31;;;;;;;22.88;11.07;;;21.80;43.50;;;;;;5091267;28;20040;-72
2024/01/13 08:59:57;;;;;;;17.25;11.32;;;21.90;43.90;;;;;;5090155;28;20055;-74
2024/01/13 09:02:23;;;;;;;17.20;10.40;;;21.80;43.70;;;;;;5092156;28;20042;-73
2024/01/13 09:04:49;;;;;;;17.23;11.57;;;21.70;44.60;;;;;;5092712;28;20500;-75
2024/01/13 09:07:17;;;;;;;17.85;10.73;;;21.60;44.60;;;;;;5091326;28;20063;-75
2024/01/13 09:09:43;;;;;;;17.92;11.57;;;21.70;45.10;;;;;;5092468;28;20036;-75
2024/01/13 09:12:09;;;;;;;20.65;12.07;;;21.70;45.70;;;;;;5107959;28;20111;-78
2024/01/13 09:14:35;;;;;;;30.20;14.00;;;21.60;44.90;;;;;;5100169;28;20059;-74
2024/01/13 09:17:01;;;;;;;26.05;15.48;;;21.60;45.20;;;;;;5094723;28;20051;-73
2024/01/13 09:19:27;;;;;;;33.97;17.35;;;21.50;45.60;;;;;;5090005;28;20051;-73
2024/01/13 09:21:53;;;;;;;37.10;19.20;;;21.50;45.90;;;;;;5073050;28;20040;-72
2024/01/13 09:24:19;;;;;;;30.42;16.00;;;21.50;46.40;;;;;;5091003;28;20040;-73
2024/01/13 09:26:46;;;;;;;9.55;5.82;;;21.60;46.50;;;;;;5090960;28;20102;-73
2024/01/13 09:29:12;;;;;;;27.08;6.55;;;21.60;40.20;;;;;;5091300;28;20479;-74
2024/01/13 09:31:38;;;;;;;15.50;5.85;;;21.80;43.00;;;;;;5090633;28;20076;-74
2024/01/13 09:34:05;;;;;;;10.98;6.35;;;21.80;43.10;;;;;;5090917;28;20060;-75
2024/01/13 09:36:31;;;;;;;11.68;5.50;;;21.80;43.40;;;;;;5090434;28;20043;-70
2024/01/13 09:38:57;;;;;;;23.08;11.75;;;22.00;43.70;;;;;;5090913;28;20051;-72
2024/01/13 09:41:23;;;;;;;16.73;10.43;;;22.00;48.00;;;;;;5090700;28;20052;-73
2024/01/13 09:44:03;;;;;;;20.40;10.32;;;22.00;45.20;;;;;;5091098;28;20348;-73
2024/01/13 09:46:30;;;;;;;15.25;9.40;;;22.10;45.00;;;;;;5077850;28;20039;-73
2024/01/13 09:48:57;;;;;;;27.65;14.30;;;22.20;45.00;;;;;;5101456;28;20032;-76
2024/01/13 09:51:23;;;;;;;21.75;12.02;;;22.10;45.20;;;;;;5101808;28;20034;-74
2024/01/13 09:53:57;;;;;;;17.08;10.15;;;22.20;46.30;;;;;;5100638;28;20030;-74
2024/01/13 09:56:32;;;;;;;16.42;9.00;;;22.20;49.40;;;;;;5099346;28;20039;-73
2024/01/13 09:58:58;;;;;;;9.38;5.47;;;22.10;47.60;;;;;;5059087;28;20047;-74
2024/01/13 10:01:27;;;;;;;9.23;6.13;;;22.10;45.60;;;;;;5095209;28;20051;-74
2024/01/13 10:03:53;;;;;;;24.75;7.22;;;22.30;44.60;;;;;;5075801;28;20440;-73
2024/01/13 10:06:20;;;;;;;14.93;9.45;;;22.50;48.50;;;;;;5107352;28;20612;-70
2024/01/13 10:08:46;;;;;;;15.50;9.57;;;22.40;46.70;;;;;;5103646;28;20036;-76
2024/01/13 10:11:12;;;;;;;16.05;9.57;;;22.50;47.90;;;;;;5105912;28;20050;-73
2024/01/13 10:13:38;;;;;;;18.48;10.25;;;22.70;50.30;;;;;;5104289;28;20059;-73
2024/01/13 10:16:04;;;;;;;20.40;10.35;;;22.90;46.90;;;;;;5103364;28;20030;-73
2024/01/13 10:18:31;;;;;;;17.92;9.77;;;22.80;46.40;;;;;;5105400;28;20062;-74
2024/01/13 10:20:57;;;;;;;20.65;9.65;;;22.70;46.40;;;;;;5102651;28;20050;-73
2024/01/13 10:23:24;;;;;;;17.15;9.70;;;22.70;47.00;;;;;;5105060;28;20438;-74
2024/01/13 10:25:50;;;;;;;16.38;9.15;;;22.60;47.40;;;;;;5103185;28;20032;-72
2024/01/13 10:28:16;;;;;;;20.92;11.55;;;22.60;47.20;;;;;;5102044;28;20106;-74
2024/01/13 10:30:42;;;;;;;18.45;10.73;;;22.60;46.70;;;;;;5103658;27;20475;-76
2024/01/13 10:33:12;;;;;;;16.33;10.63;;;22.60;46.50;;;;;;5105148;28;20095;-76
2024/01/13 10:35:38;;;;;;;17.27;10.45;;;22.70;46.80;;;;;;5103739;28;20386;-75
2024/01/13 10:38:05;;;;;;;18.80;12.13;;;22.60;47.90;;;;;;5094229;28;20032;-76
2024/01/13 10:40:31;;;;;;;14.82;9.88;;;22.60;49.50;;;;;;5074836;28;20070;-76
2024/01/13 10:43:02;;;;;;;16.85;9.82;;;22.50;48.60;;;;;;5094054;28;20020;-75
2024/01/13 10:45:28;;;;;;;16.02;10.95;;;22.60;48.00;;;;;;5093761;28;20400;-79
2024/01/13 10:48:03;;;;;;;15.13;9.48;;;22.50;47.90;;;;;;5093840;28;20064;-76
2024/01/13 10:50:30;;;;;;;15.95;10.27;;;22.60;48.00;;;;;;5093905;28;20040;-73
2024/01/13 10:53:17;;;;;;;16.27;10.13;;;22.70;48.00;;;;;;5095275;28;20059;-71
2024/01/13 10:55:43;;;;;;;17.17;8.50;;;22.80;50.10;;;;;;5105021;28;20059;-76
2024/01/13 10:58:10;;;;;;;10.90;7.72;;;23.10;52.50;;;;;;5104788;28;20042;-75
2024/01/13 11:00:37;;;;;;;17.25;5.00;;;23.50;54.10;;;;;;5104193;28;20062;-76
2024/01/13 11:03:04;;;;;;;11.18;4.57;;;23.50;44.80;;;;;;5102783;28;20024;-75
2024/01/13 11:05:33;;;;;;;6.47;4.38;;;23.50;43.80;;;;;;5095747;28;20395;-75
2024/01/13 11:08:03;;;;;;;6.85;4.13;;;23.60;46.90;;;;;;5097962;28;20522;-79
2024/01/13 11:10:33;;;;;;;18.20;9.38;;;23.40;40.80;;;;;;5106656;28;20468;-73
2024/01/13 11:13:32;;;;;;;6.28;4.15;;;23.30;48.40;;;;;;5104006;28;20102;-78
2024/01/13 11:16:06;;;;;;;5.05;3.05;;;23.40;46.90;;;;;;5030472;28;20049;-75
2024/01/13 11:18:45;;;;;;;22.70;5.80;;;23.90;49.00;;;;;;5027801;28;20084;-75
2024/01/13 11:21:12;;;;;;;9.00;4.03;;;24.30;51.90;;;;;;5027819;28;20045;-72
2024/01/13 11:23:50;;;;;;;7.28;4.30;;;25.20;51.20;;;;;;5030634;28;20500;-70
2024/01/13 11:26:21;;;;;;;6.25;3.80;;;25.20;49.80;;;;;;5030448;28;20052;-72
2024/01/13 11:28:55;;;;;;;7.25;3.38;;;25.20;42.60;;;;;;5030190;28;20034;-69
2024/01/13 11:31:54;;;;;;;3.92;3.35;;;24.90;42.50;;;;;;5027809;28;20034;-72
2024/01/13 11:34:22;;;;;;;7.70;3.70;;;24.90;42.50;;;;;;4993911;28;20053;-74
2024/01/13 11:36:50;;;;;;;5.55;3.60;;;24.90;41.10;;;;;;4990552;28;20062;-78
2024/01/13 11:39:18;;;;;;;6.40;3.63;;;24.70;39.00;;;;;;4990523;28;20078;-75
2024/01/13 11:41:44;;;;;;;4.25;3.30;;;24.70;40.80;;;;;;4998355;28;20030;-75
2024/01/13 11:44:11;;;;;;;4.28;3.40;;;24.70;41.50;;;;;;4995450;28;20421;-76
2024/01/13 11:46:38;;;;;;;14.63;9.45;;;24.90;46.10;;;;;;4990829;28;20601;-77
2024/01/13 11:49:07;;;;;;;16.85;9.93;;;25.20;46.00;;;;;;4980091;28;20038;-77
2024/01/13 11:51:56;;;;;;;18.55;9.07;;;25.10;46.60;;;;;;4990777;28;20038;-80
2024/01/13 11:54:24;;;;;;;14.57;10.27;;;25.00;47.00;;;;;;5033239;28;20041;-80
2024/01/13 11:56:50;;;;;;;20.27;10.63;;;25.00;46.90;;;;;;5058676;28;20059;-78
2024/01/13 11:59:16;;;;;;;18.13;10.88;;;25.00;46.80;;;;;;5069703;28;20044;-80
2024/01/13 12:01:44;;;;;;;16.63;11.23;;;24.90;46.60;;;;;;5069940;28;20452;-80
2024/01/13 12:04:10;;;;;;;17.23;10.32;;;25.00;46.60;;;;;;5069662;28;20052;-76
2024/01/13 12:06:37;;;;;;;16.13;10.05;;;24.80;47.10;;;;;;5050134;28;20133;-81
2024/01/13 12:09:03;;;;;;;16.55;11.10;;;24.70;47.50;;;;;;5056006;28;20726;-80
2024/01/13 12:11:29;;;;;;;16.17;9.85;;;24.60;45.70;;;;;;5092073;28;20141;-76
2024/01/13 12:13:55;;;;;;;15.95;10.43;;;24.60;46.20;;;;;;5102968;28;20096;-79
2024/01/13 12:16:21;;;;;;;15.20;10.10;;;24.50;47.30;;;;;;5112285;27;20031;-77
2024/01/13 12:18:47;;;;;;;16.98;11.15;;;24.50;47.60;;;;;;5112268;28;20039;-79
2024/01/13 12:21:14;;;;;;;17.20;11.55;;;24.50;47.80;;;;;;5112605;28;20099;-79
2024/01/13 12:23:44;;;;;;;2.53;1.92;;;24.40;47.80;;;;;;5111324;28;20038;-76
2024/01/13 12:26:10;;;;;;;8.82;3.63;;;24.50;49.60;;;;;;5112477;28;20041;-80
2024/01/13 12:28:37;;;;;;;4.55;2.97;;;25.10;53.60;;;;;;5110930;28;20031;-79
2024/01/13 12:31:04;;;;;;;6.75;4.38;;;25.70;52.70;;;;;;5112371;28;20028;-80
2024/01/13 12:33:31;;;;;;;9.13;7.75;;;25.80;47.80;;;;;;5112079;28;20039;-79
2024/01/13 12:36:02;;;;;;;18.90;11.93;;;26.00;47.20;;;;;;5111263;28;20055;-78
2024/01/13 12:38:29;;;;;;;22.23;12.30;;;25.90;51.00;;;;;;5111573;28;20523;-78